Terminal Aerodrome Forecast
Issued by NWS

Home | Current Version | Previous Version | Text Only | Print | Product List | Glossary On
Versions: 1 2 3 4 5 6 7 8 9 10 11 12 13 14 15 16 17 18 19 20 21 22 23
775
FTUS46 KSEW 281126
TAFBFI
TAF
KBFI 281126Z 2812/2912 15010KT P6SM -RA BKN035 OVC050
      TEMPO 2812/2816 BKN025 OVC040
     FM281800 17013G20KT P6SM VCSH FEW025 BKN040 OVC060
      TEMPO 2820/2824 -RA
     FM290000 15009KT P6SM -RA FEW018 BKN035 OVC050
     FM290600 15007KT 5SM -RA BR SCT009 OVC018=

USA.gov is the U.S. government's official web portal to all federal, state and local government web resources and services.